sensor_id;sensor_type;location;lat;lon;timestamp;pressure;altitude;pressure_sealevel;temperature;humidity
46382;BME280;66809;52.974;-2.514;2023-09-07T00:01:47;1012.4920233181896;;;19.658213045995332;39.85312873487237
46382;BME280;66809;52.974;-2.514;2023-09-07T00:03:47;1012.4915098020509;;;19.66671741539009;39.86713992414682
46382;BME280;66809;52.974;-2.514;2023-09-07T00:05:47;1012.491748339404;;;19.678118254073436;39.87845535557586
46382;BME280;66809;52.974;-2.514;2023-09-07T00:07:47;1012.4901836281472;;;19.67132873090896;39.896777662531136
46382;BME280;66809;52.974;-2.514;2023-09-07T00:09:47;1012.4873281166844;;;19.66534588200737;39.9144993384833
46382;BME280;66809;52.974;-2.514;2023-09-07T00:11:47;1012.4829907308207;;;19.67915834327046;39.9369077503055
46382;BME280;66809;52.974;-2.514;2023-09-07T00:13:47;1012.478480150164;;;19.678384949513703;39.951489416663186
46382;BME280;66809;52.974;-2.514;2023-09-07T00:15:49;1012.4736192792564;;;19.676267096502652;39.96417687477885
46382;BME280;66809;52.974;-2.514;2023-09-07T00:17:47;1012.4704095834168;;;19.67824177307572;39.977069649398345
46382;BME280;66809;52.974;-2.514;2023-09-07T00:19:47;1012.4684653435031;;;19.68087220300694;39.98868089256063
46382;BME280;66809;52.974;-2.514;2023-09-07T00:21:47;1012.4664118999735;;;19.682088426016954;40.00271216622534
46382;BME280;66809;52.974;-2.514;2023-09-07T00:23:47;1012.4625914190598;;;19.675388817828683;40.024946334592954
46382;BME280;66809;52.974;-2.514;2023-09-07T00:25:48;1012.4568267840493;;;19.676733946711867;40.04267485503388
46382;BME280;66809;52.974;-2.514;2023-09-07T00:27:47;1012.4480691765094;;;19.66797008876155;40.06911519747651
46382;BME280;66809;52.974;-2.514;2023-09-07T00:29:47;1012.4383297508109;;;19.673203222531683;40.09844366693209
46382;BME280;66809;52.974;-2.514;2023-09-07T00:31:47;1012.4308331781134;;;19.674593387160183;40.126279662484635
46382;BME280;66809;52.974;-2.514;2023-09-07T00:33:47;1012.424201337837;;;19.682059160897854;40.15711380643679
46382;BME280;66809;52.974;-2.514;2023-09-07T00:35:47;1012.4163944081309;;;19.67749388033131;40.18093674280718
46382;BME280;66809;52.974;-2.514;2023-09-07T00:37:47;1012.408942957376;;;19.67437388982661;40.20155765133016
46382;BME280;66809;52.974;-2.514;2023-09-07T00:39:47;1012.4026164244256;;;19.67670769226866;40.22098264507317
46382;BME280;66809;52.974;-2.514;2023-09-07T00:41:47;1012.395613289336;;;19.65973355160458;40.225020769855924
46382;BME280;66809;52.974;-2.514;2023-09-07T00:43:47;1012.387875297901;;;19.647566188909643;40.233259432608605
46382;BME280;66809;52.974;-2.514;2023-09-07T00:45:47;1012.3801677521957;;;19.640852623469673;40.245399756284
46382;BME280;66809;52.974;-2.514;2023-09-07T00:47:47;1012.3711453204728;;;19.638108241378028;40.26073792290054
46382;BME280;66809;52.974;-2.514;2023-09-07T00:49:47;1012.3619387791837;;;19.628192852437856;40.283966491974596
46382;BME280;66809;52.974;-2.514;2023-09-07T00:51:47;1012.3532514555748;;;19.63424660633031;40.3021932673633
46382;BME280;66809;52.974;-2.514;2023-09-07T00:53:47;1012.3436690614943;;;19.632742823017733;40.31701473380361
46382;BME280;66809;52.974;-2.514;2023-09-07T00:55:47;1012.3335108219611;;;19.628659025407785;40.329527056658385
46382;BME280;66809;52.974;-2.514;2023-09-07T00:57:47;1012.3242960684382;;;19.636639561467053;40.33693570316417
46382;BME280;66809;52.974;-2.514;2023-09-07T00:59:47;1012.318252702601;;;19.648897492895333;40.338549558651195
46382;BME280;66809;52.974;-2.514;2023-09-07T01:01:47;1012.3137641689174;;;19.65265727099639;40.34248697849125
46382;BME280;66809;52.974;-2.514;2023-09-07T01:03:47;1012.3071530997651;;;19.636596542760437;40.35263032340906
46382;BME280;66809;52.974;-2.514;2023-09-07T01:05:52;1012.2979761441449;;;19.61404544476131;40.36226214418512
46382;BME280;66809;52.974;-2.514;2023-09-07T01:07:52;1012.2876756599998;;;19.60975746809896;40.3655881852694
46382;BME280;66809;52.974;-2.514;2023-09-07T01:09:51;1012.2771153968501;;;19.610279123786654;40.37171900084056
46382;BME280;66809;52.974;-2.514;2023-09-07T01:11:47;1012.2680111310884;;;19.597531975845435;40.37255762364823
46382;BME280;66809;52.974;-2.514;2023-09-07T01:13:47;1012.2615404072205;;;19.59771498904007;40.374807228994904
46382;BME280;66809;52.974;-2.514;2023-09-07T01:15:48;1012.2585514345533;;;19.58520094671292;40.38017408993206
46382;BME280;66809;52.974;-2.514;2023-09-07T01:17:47;1012.2556686957283;;;19.576779449543206;40.397138853139076
46382;BME280;66809;52.974;-2.514;2023-09-07T01:19:48;1012.2519910221539;;;19.56875254588554;40.41628340837455
46382;BME280;66809;52.974;-2.514;2023-09-07T01:21:47;1012.2488918664477;;;19.543187339175496;40.427806661780416
46382;BME280;66809;52.974;-2.514;2023-09-07T01:23:47;1012.2466190219023;;;19.540162311020715;40.429714278208984
46382;BME280;66809;52.974;-2.514;2023-09-07T01:25:47;1012.2447500852151;;;19.543865455476688;40.42951762719089
46382;BME280;66809;52.974;-2.514;2023-09-07T01:27:47;1012.2458367930158;;;19.55674200553789;40.42311222217175
46382;BME280;66809;52.974;-2.514;2023-09-07T01:29:47;1012.2508045212505;;;19.55548409479145;40.41280733255601
46382;BME280;66809;52.974;-2.514;2023-09-07T01:31:47;1012.2572281264326;;;19.55097393740777;40.396298227653716
46382;BME280;66809;52.974;-2.514;2023-09-07T01:33:47;1012.2630349111613;;;19.546550665746928;40.37299450068022
46382;BME280;66809;52.974;-2.514;2023-09-07T01:35:47;1012.2688657922043;;;19.557379776424213;40.35360330324476
46382;BME280;66809;52.974;-2.514;2023-09-07T01:37:47;1012.2741087412414;;;19.546870314471896;40.3380292546606
46382;BME280;66809;52.974;-2.514;2023-09-07T01:39:47;1012.2775864201608;;;19.538736343420677;40.32905873672101
46382;BME280;66809;52.974;-2.514;2023-09-07T01:41:47;1012.2799835848849;;;19.547588263985194;40.33507587991815
46382;BME280;66809;52.974;-2.514;2023-09-07T01:43:48;1012.2833228003451;;;19.549232707214586;40.33718425455332
46382;BME280;66809;52.974;-2.514;2023-09-07T01:45:47;1012.2875970492761;;;19.535109675497516;40.34269200420561
46382;BME280;66809;52.974;-2.514;2023-09-07T01:47:47;1012.2925463112769;;;19.525174125854683;40.34769023522174
46382;BME280;66809;52.974;-2.514;2023-09-07T01:49:47;1012.2958548267935;;;19.52284367547817;40.345595391565965
46382;BME280;66809;52.974;-2.514;2023-09-07T01:51:47;1012.2947670468297;;;19.506546819314675;40.34449905999952
46382;BME280;66809;52.974;-2.514;2023-09-07T01:53:47;1012.2937351632839;;;19.494773730312204;40.347198965421306
46382;BME280;66809;52.974;-2.514;2023-09-07T01:55:47;1012.2937432692672;;;19.498365116583706;40.34791704225655
46382;BME280;66809;52.974;-2.514;2023-09-07T01:57:47;1012.2917672493088;;;19.484693659754026;40.36365128112038
46382;BME280;66809;52.974;-2.514;2023-09-07T01:59:47;1012.2859973734977;;;19.474349737448374;40.38597063710333
46382;BME280;66809;52.974;-2.514;2023-09-07T02:01:47;1012.2811254253434;;;19.465814950727303;40.396275316505395
46382;BME280;66809;52.974;-2.514;2023-09-07T02:03:47;1012.2796017229398;;;19.47497189403868;40.4012744935932
46382;BME280;66809;52.974;-2.514;2023-09-07T02:05:47;1012.2813163137306;;;19.485159880522307;40.41247605555099
46382;BME280;66809;52.974;-2.514;2023-09-07T02:07:47;1012.2859119474293;;;19.470381785329813;40.424890433186235
46382;BME280;66809;52.974;-2.514;2023-09-07T02:09:47;1012.2905888083533;;;19.46705174942371;40.445290054199056
46382;BME280;66809;52.974;-2.514;2023-09-07T02:11:47;1012.2956782451579;;;19.46331837555703;40.45800132645671
46382;BME280;66809;52.974;-2.514;2023-09-07T02:13:47;1012.2973155782435;;;19.452310650289256;40.47661126437449
46382;BME280;66809;52.974;-2.514;2023-09-07T02:15:47;1012.2940860044757;;;19.45312608076519;40.49300407441107
46382;BME280;66809;52.974;-2.514;2023-09-07T02:17:47;1012.2891994182016;;;19.459333273682223;40.50408718607447
46382;BME280;66809;52.974;-2.514;2023-09-07T02:19:47;1012.2884273903145;;;19.467571448525337;40.51298002777998
46382;BME280;66809;52.974;-2.514;2023-09-07T02:21:47;1012.2894204668916;;;19.478658538656823;40.52397868176057
46382;BME280;66809;52.974;-2.514;2023-09-07T02:23:47;1012.2917807021652;;;19.47295300475522;40.533884975977436
46382;BME280;66809;52.974;-2.514;2023-09-07T02:25:46;1012.2967983309003;;;19.46648030180251;40.543306939076764
46382;BME280;66809;52.974;-2.514;2023-09-07T02:27:47;1012.3039766088995;;;19.43471130556712;40.56363976821661
46382;BME280;66809;52.974;-2.514;2023-09-07T02:29:47;1012.3089025366432;;;19.42180791766474;40.5899702172311
46382;BME280;66809;52.974;-2.514;2023-09-07T02:31:47;1012.3096943578663;;;19.406162159009174;40.62049820991531
46382;BME280;66809;52.974;-2.514;2023-09-07T02:33:47;1012.3099515362213;;;19.39785511708806;40.65581783727624
46382;BME280;66809;52.974;-2.514;2023-09-07T02:35:48;1012.312056840117;;;19.386223066444238;40.68893336550489
46382;BME280;66809;52.974;-2.514;2023-09-07T02:37:47;1012.315631494169;;;19.39066654380914;40.72613181043304
46382;BME280;66809;52.974;-2.514;2023-09-07T02:39:47;1012.3224657356144;;;19.38322751813591;40.758429428353104
46382;BME280;66809;52.974;-2.514;2023-09-07T02:41:47;1012.3310626210867;;;19.366878089671143;40.78692733153846
46382;BME280;66809;52.974;-2.514;2023-09-07T02:43:47;1012.33989462809;;;19.361727491797865;40.8088339764563
46382;BME280;66809;52.974;-2.514;2023-09-07T02:45:48;1012.3471848337638;;;19.35772522501855;40.82344272572003
46382;BME280;66809;52.974;-2.514;2023-09-07T02:47:47;1012.3544063239519;;;19.343154333790228;40.83805206322989
46382;BME280;66809;52.974;-2.514;2023-09-07T02:49:47;1012.36236960342;;;19.34881317740773;40.85646075274541
46382;BME280;66809;52.974;-2.514;2023-09-07T02:51:47;1012.3734406585633;;;19.346374183391337;40.87567651749005
46382;BME280;66809;52.974;-2.514;2023-09-07T02:53:46;1012.379828360279;;;19.353613105309318;40.895793479418785
46382;BME280;66809;52.974;-2.514;2023-09-07T02:55:47;1012.3814035371296;;;19.3404735542875;40.9211939799507
46382;BME280;66809;52.974;-2.514;2023-09-07T02:57:47;1012.3820118195696;;;19.341498702099077;40.93907515573416
46382;BME280;66809;52.974;-2.514;2023-09-07T02:59:47;1012.382034549874;;;19.34349017846888;40.952259154430074
46382;BME280;66809;52.974;-2.514;2023-09-07T03:01:47;1012.3799793015385;;;19.34824619447265;40.973630335781785
46382;BME280;66809;52.974;-2.514;2023-09-07T03:03:47;1012.375484949352;;;19.35653981177072;40.99079637064436
46382;BME280;66809;52.974;-2.514;2023-09-07T03:05:47;1012.3683707863839;;;19.370698616006067;41.00055596378782
46382;BME280;66809;52.974;-2.514;2023-09-07T03:07:47;1012.3569180406165;;;19.39175364663679;41.011209480856124
46382;BME280;66809;52.974;-2.514;2023-09-07T03:09:47;1012.3426050435481;;;19.40581161664168;41.01437807339859
46382;BME280;66809;52.974;-2.514;2023-09-07T03:11:47;1012.3257635264004;;;19.41950826523441;41.02843526646668
46382;BME280;66809;52.974;-2.514;2023-09-07T03:13:47;1012.3082099867041;;;19.43162768399527;41.03908990052537
46382;BME280;66809;52.974;-2.514;2023-09-07T03:15:47;1012.2896805764174;;;19.44944172552873;41.049344381261186
46382;BME280;66809;52.974;-2.514;2023-09-07T03:17:47;1012.269525974578;;;19.45798153448133;41.058208982967
46382;BME280;66809;52.974;-2.514;2023-09-07T03:19:47;1012.247426023725;;;19.449560661623252;41.070073906940515
46382;BME280;66809;52.974;-2.514;2023-09-07T03:21:46;1012.2250513480114;;;19.455394750663345;41.08004230378237
46382;BME280;66809;52.974;-2.514;2023-09-07T03:23:47;1012.1981566410747;;;19.45916173933281;41.092311639649786
46382;BME280;66809;52.974;-2.514;2023-09-07T03:25:47;1012.1608658931212;;;19.462819485639315;41.10937499193128
46382;BME280;66809;52.974;-2.514;2023-09-07T03:27:47;1012.1141610117822;;;19.48853002175222;41.11843411868782
46382;BME280;66809;52.974;-2.514;2023-09-07T03:29:49;1012.065712767332;;;19.497800858263428;41.12529991675339
46382;BME280;66809;52.974;-2.514;2023-09-07T03:31:47;1012.0208502919118;;;19.510203452943774;41.134267065850516
46382;BME280;66809;52.974;-2.514;2023-09-07T03:33:47;1011.9791663441457;;;19.51597031334426;41.143237794366534
46382;BME280;66809;52.974;-2.514;2023-09-07T03:35:46;1011.9384357818652;;;19.513843513853672;41.146609516110175
46382;BME280;66809;52.974;-2.514;2023-09-07T03:37:47;1011.8988257085311;;;19.510884828754165;41.146089743689885
46382;BME280;66809;52.974;-2.514;2023-09-07T03:39:47;1011.8583070150377;;;19.510013437672594;41.15846625335009
46382;BME280;66809;52.974;-2.514;2023-09-07T03:41:48;1011.8179391067516;;;19.517464250494193;41.17134401748388
46382;BME280;66809;52.974;-2.514;2023-09-07T03:43:47;1011.7796684705265;;;19.524038664483346;41.1912205003425
46382;BME280;66809;52.974;-2.514;2023-09-07T03:45:47;1011.7434159666354;;;19.522868531671914;41.21869675422284
46382;BME280;66809;52.974;-2.514;2023-09-07T03:47:46;1011.7064890914263;;;19.516337397032704;41.254161798410344
46382;BME280;66809;52.974;-2.514;2023-09-07T03:49:47;1011.6687519285693;;;19.502044181238293;41.28762853558204
46382;BME280;66809;52.974;-2.514;2023-09-07T03:51:47;1011.6308571531541;;;19.497403316118614;41.31919234540797
46382;BME280;66809;52.974;-2.514;2023-09-07T03:53:47;1011.5969298203236;;;19.489387011000034;41.3469620027008
46382;BME280;66809;52.974;-2.514;2023-09-07T03:55:47;1011.5647066986955;;;19.484687319798354;41.370442555954035
46382;BME280;66809;52.974;-2.514;2023-09-07T03:57:47;1011.5337092244557;;;19.478088582344434;41.392729966787826
46382;BME280;66809;52.974;-2.514;2023-09-07T03:59:48;1011.5014720260814;;;19.471951995928055;41.41322178682319
46382;BME280;66809;52.974;-2.514;2023-09-07T04:01:47;1011.4689999730393;;;19.4601880074402;41.42732499908162
46382;BME280;66809;52.974;-2.514;2023-09-07T04:03:47;1011.4370159651571;;;19.447205603797368;41.44203101584692
46382;BME280;66809;52.974;-2.514;2023-09-07T04:05:47;1011.4074441931473;;;19.42892351054925;41.455839678983516
46382;BME280;66809;52.974;-2.514;2023-09-07T04:07:47;1011.3822474551928;;;19.406355613794087;41.46705000123884
46382;BME280;66809;52.974;-2.514;2023-09-07T04:09:47;1011.3617548211708;;;19.395608363387627;41.47376304556723
46382;BME280;66809;52.974;-2.514;2023-09-07T04:11:47;1011.3418462909365;;;19.384886320979344;41.47767852305874
46382;BME280;66809;52.974;-2.514;2023-09-07T04:13:47;1011.3227380715654;;;19.384578789883253;41.47889512927407
46382;BME280;66809;52.974;-2.514;2023-09-07T04:15:47;1011.3056455887388;;;19.37893795846469;41.477614942661255
46382;BME280;66809;52.974;-2.514;2023-09-07T04:17:49;1011.290955420188;;;19.370358642917147;41.47493339486266
46382;BME280;66809;52.974;-2.514;2023-09-07T04:19:47;1011.2740929216355;;;19.378219032847387;41.46675543027264
46382;BME280;66809;52.974;-2.514;2023-09-07T04:21:47;1011.2557901981012;;;19.374863782425606;41.46057733492162
46382;BME280;66809;52.974;-2.514;2023-09-07T04:23:47;1011.2405191861343;;;19.360923105648148;41.45549931290176
46382;BME280;66809;52.974;-2.514;2023-09-07T04:25:47;1011.2338381418142;;;19.35483944404211;41.4487186428779
46382;BME280;66809;52.974;-2.514;2023-09-07T04:27:47;1011.2349595723954;;;19.341447818262875;41.438547289860985
46382;BME280;66809;52.974;-2.514;2023-09-07T04:29:47;1011.2387097766006;;;19.328112511632142;41.43267851138991
46382;BME280;66809;52.974;-2.514;2023-09-07T04:31:47;1011.2390095666352;;;19.318808061445186;41.43040390430913
46382;BME280;66809;52.974;-2.514;2023-09-07T04:33:47;1011.2358335971484;;;19.310041389594556;41.4303255478397
46382;BME280;66809;52.974;-2.514;2023-09-07T04:35:47;1011.2303467186362;;;19.303585496941704;41.43324309338854
46382;BME280;66809;52.974;-2.514;2023-09-07T04:37:47;1011.2238730292446;;;19.294319666359964;41.42625970626649
46382;BME280;66809;52.974;-2.514;2023-09-07T04:39:50;1011.2175286187796;;;19.299050468064614;41.40337805364196
46382;BME280;66809;52.974;-2.514;2023-09-07T04:41:47;1011.2095017170521;;;19.295750308147504;41.37569651257265
46382;BME280;66809;52.974;-2.514;2023-09-07T04:43:47;1011.1992987112137;;;19.2937495530344;41.348407156436096
46382;BME280;66809;52.974;-2.514;2023-09-07T04:45:47;1011.1900169363726;;;19.29907320407197;41.315614957059786
46382;BME280;66809;52.974;-2.514;2023-09-07T04:47:47;1011.1830272751906;;;19.3174358985733;41.272542902005156
46382;BME280;66809;52.974;-2.514;2023-09-07T04:49:49;1011.1803525455178;;;19.32763354505152;41.232769999719146
46382;BME280;66809;52.974;-2.514;2023-09-07T04:51:46;1011.1785778095972;;;19.322688571722445;41.19409893071382
46382;BME280;66809;52.974;-2.514;2023-09-07T04:53:47;1011.1771434565806;;;19.332463582467177;41.15852314167642
46382;BME280;66809;52.974;-2.514;2023-09-07T04:55:47;1011.1770181124771;;;19.342440264298805;41.12733868695443
46382;BME280;66809;52.974;-2.514;2023-09-07T04:57:47;1011.179376817479;;;19.351719512251535;41.09305570283631
46382;BME280;66809;52.974;-2.514;2023-09-07T04:59:47;1011.1868001622786;;;19.35422857948023;41.06047110510308
46382;BME280;66809;52.974;-2.514;2023-09-07T05:01:47;1011.1962611799594;;;19.368334449874357;41.03228452192435
46382;BME280;66809;52.974;-2.514;2023-09-07T05:03:47;1011.2068562133663;;;19.369925095754503;41.000208159268944
46382;BME280;66809;52.974;-2.514;2023-09-07T05:05:52;1011.2169918802665;;;19.379098493482427;40.972431912044875
46382;BME280;66809;52.974;-2.514;2023-09-07T05:07:47;1011.2256405069954;;;19.382073100755033;40.94985146394682
46382;BME280;66809;52.974;-2.514;2023-09-07T05:09:47;1011.2330881637056;;;19.37943711615278;40.9322664189483
46382;BME280;66809;52.974;-2.514;2023-09-07T05:11:47;1011.2471292681789;;;19.37597765259419;40.91338426304244
46382;BME280;66809;52.974;-2.514;2023-09-07T05:13:47;1011.2676726250903;;;19.36148776359752;40.89681412380578
46382;BME280;66809;52.974;-2.514;2023-09-07T05:15:48;1011.2884965406361;;;19.347222248382522;40.88494847136654
46382;BME280;66809;52.974;-2.514;2023-09-07T05:17:46;1011.3060848799583;;;19.341186505888643;40.87867856747309
46382;BME280;66809;52.974;-2.514;2023-09-07T05:19:47;1011.3230162104744;;;19.32550931520238;40.8783012653972
46382;BME280;66809;52.974;-2.514;2023-09-07T05:21:47;1011.336812907987;;;19.30728856912068;40.88011639778503
46382;BME280;66809;52.974;-2.514;2023-09-07T05:23:47;1011.3481433191777;;;19.311639090560515;40.886520441772205
46382;BME280;66809;52.974;-2.514;2023-09-07T05:25:48;1011.3557570428618;;;19.309135044328517;40.8911196232339
46382;BME280;66809;52.974;-2.514;2023-09-07T05:27:48;1011.356286419903;;;19.323829113250618;40.88580203704426
46382;BME280;66809;52.974;-2.514;2023-09-07T05:29:47;1011.3532396075942;;;19.344452220195873;40.86086207803746
46382;BME280;66809;52.974;-2.514;2023-09-07T05:31:47;1011.3576693895267;;;19.357035970156527;40.82062599233608
46382;BME280;66809;52.974;-2.514;2023-09-07T05:33:47;1011.3665449845897;;;19.36340160174562;40.78880741070127
46382;BME280;66809;52.974;-2.514;2023-09-07T05:35:47;1011.374294976106;;;19.375310615500197;40.765474891432355
46382;BME280;66809;52.974;-2.514;2023-09-07T05:37:47;1011.3804215491996;;;19.38126755683534;40.75234266299806
46382;BME280;66809;52.974;-2.514;2023-09-07T05:39:47;1011.38227304821;;;19.389387237746302;40.74041707515644
46382;BME280;66809;52.974;-2.514;2023-09-07T05:41:49;1011.3850376076178;;;19.39494438413753;40.7364084177779
46382;BME280;66809;52.974;-2.514;2023-09-07T05:43:47;1011.3896602656629;;;19.395784330609875;40.727097118301614
46382;BME280;66809;52.974;-2.514;2023-09-07T05:45:47;1011.3969877692715;;;19.4054560289246;40.712777034594346
46382;BME280;66809;52.974;-2.514;2023-09-07T05:47:47;1011.4075695416049;;;19.407640433028163;40.69926244795792
46382;BME280;66809;52.974;-2.514;2023-09-07T05:49:47;1011.4154892317024;;;19.407978727481158;40.68664031145743
46382;BME280;66809;52.974;-2.514;2023-09-07T05:51:47;1011.4201057365377;;;19.429742489392968;40.674502993103
46382;BME280;66809;52.974;-2.514;2023-09-07T05:53:47;1011.4211804157792;;;19.43845845677171;40.65425625802939
46382;BME280;66809;52.974;-2.514;2023-09-07T05:55:47;1011.4210736436761;;;19.452247240056465;40.63170754851831
46382;BME280;66809;52.974;-2.514;2023-09-07T05:57:48;1011.4222605148664;;;19.44610912056061;40.61107025548285
46382;BME280;66809;52.974;-2.514;2023-09-07T05:59:47;1011.4208078743956;;;19.45255378548937;40.59464188191713
46382;BME280;66809;52.974;-2.514;2023-09-07T06:01:47;1011.4210285920126;;;19.449070972397376;40.57839677208258
46382;BME280;66809;52.974;-2.514;2023-09-07T06:03:47;1011.4248423153373;;;19.448358571461654;40.5647557508054
46382;BME280;66809;52.974;-2.514;2023-09-07T06:05:47;1011.4280554798128;;;19.445220260959285;40.554310743040894
46382;BME280;66809;52.974;-2.514;2023-09-07T06:07:47;1011.4328747592782;;;19.467387026333096;40.53895402797754
46382;BME280;66809;52.974;-2.514;2023-09-07T06:09:47;1011.4356117065574;;;19.48014191415664;40.51489084752813
46382;BME280;66809;52.974;-2.514;2023-09-07T06:11:47;1011.4314663437978;;;19.487681138307643;40.49242754614271
46382;BME280;66809;52.974;-2.514;2023-09-07T06:13:47;1011.4237605382549;;;19.507166707424112;40.4699457855144
46382;BME280;66809;52.974;-2.514;2023-09-07T06:15:47;1011.4240051433264;;;19.521689003066918;40.45179295809555
46382;BME280;66809;52.974;-2.514;2023-09-07T06:17:48;1011.4363068997677;;;19.53113008026685;40.43844402688304
46382;BME280;66809;52.974;-2.514;2023-09-07T06:19:47;1011.4521642883112;;;19.543677361938308;40.42008795079439
46382;BME280;66809;52.974;-2.514;2023-09-07T06:21:47;1011.4734466073683;;;19.565280753792297;40.39423872604474
46382;BME280;66809;52.974;-2.514;2023-09-07T06:23:47;1011.4972771907136;;;19.580702164561725;40.36719529163447
46382;BME280;66809;52.974;-2.514;2023-09-07T06:25:47;1011.5236253693147;;;19.593972453035747;40.3485534891177
46382;BME280;66809;52.974;-2.514;2023-09-07T06:27:47;1011.5573076734725;;;19.600809027929568;40.334715041736146
46382;BME280;66809;52.974;-2.514;2023-09-07T06:29:47;1011.5949494381802;;;19.59729596890475;40.33829143144885
46382;BME280;66809;52.974;-2.514;2023-09-07T06:31:47;1011.627544782895;;;19.599614840669144;40.34816576887624
46382;BME280;66809;52.974;-2.514;2023-09-07T06:33:47;1011.6574517270495;;;19.604874714420497;40.35443276575308
46382;BME280;66809;52.974;-2.514;2023-09-07T06:35:47;1011.6878548026673;;;19.609386737971864;40.354603157573386
46382;BME280;66809;52.974;-2.514;2023-09-07T06:37:47;1011.717960786632;;;19.624184220967397;40.34906028884811
46382;BME280;66809;52.974;-2.514;2023-09-07T06:39:47;1011.7506016873783;;;19.63280494399725;40.34930172643353
46382;BME280;66809;52.974;-2.514;2023-09-07T06:41:48;1011.7829131047694;;;19.642161778499297;40.33801213721486
46382;BME280;66809;52.974;-2.514;2023-09-07T06:43:46;1011.8123440110929;;;19.657417787030017;40.32731523660087
46382;BME280;66809;52.974;-2.514;2023-09-07T06:45:47;1011.8351776714956;;;19.682911878965704;40.31900548489346
46382;BME280;66809;52.974;-2.514;2023-09-07T06:47:49;1011.8504032274559;;;19.71051764150727;40.307467645914905
46382;BME280;66809;52.974;-2.514;2023-09-07T06:49:47;1011.8641338151282;;;19.738375510518697;40.288722103299946
46382;BME280;66809;52.974;-2.514;2023-09-07T06:51:47;1011.8784478794136;;;19.763233567408598;40.2636759249366
46382;BME280;66809;52.974;-2.514;2023-09-07T06:53:47;1011.8953677981473;;;19.78649509311382;40.243128382338206
46382;BME280;66809;52.974;-2.514;2023-09-07T06:55:47;1011.9119330807061;;;19.80395275793359;40.223383040105496
46382;BME280;66809;52.974;-2.514;2023-09-07T06:57:47;1011.9247871869999;;;19.84137094154402;40.21273362377642
46382;BME280;66809;52.974;-2.514;2023-09-07T06:59:47;1011.9389580484402;;;19.873178227046488;40.19455875326716
46382;BME280;66809;52.974;-2.514;2023-09-07T07:01:47;1011.9501765272283;;;19.903131340233884;40.18280305678203
46382;BME280;66809;52.974;-2.514;2023-09-07T07:03:47;1011.956739392856;;;19.94445944155988;40.17673101904113
46382;BME280;66809;52.974;-2.514;2023-09-07T07:05:47;1011.9630714506432;;;19.989591520172304;40.16396248831265
46382;BME280;66809;52.974;-2.514;2023-09-07T07:07:47;1011.9706895510284;;;20.007586681952738;40.1592248966494
46382;BME280;66809;52.974;-2.514;2023-09-07T07:09:46;1011.9827057060489;;;20.03988750599761;40.17252885722268
46382;BME280;66809;52.974;-2.514;2023-09-07T07:11:47;1011.9979767876154;;;20.062258608695632;40.19686145240391